Flight Track Log - Related Links

Times and Time Zones

All times are in EDT time to prevent confusion due to time zone crossing. See the N7985N flight status page for this flight to view local times or setup timezone preferences in your user account.

Time Position Orientation Groundspeed Altitude Reporting Facility
EDT Latitude Longitude Course Direction KTS MPH feet Rate Location/Type
Fri 04:05:35 PM 35.2500 -89.3833 270° West 73 84 1,600  Level KMEM
Fri 04:06:40 PM 35.2500 -89.4167 270° West 76 87 2,200 567 Climbing KMEM
Fri 04:07:42 PM 35.2500 -89.4500 270° West 75 86 2,800 450 Climbing KMEM
Fri 04:08:40 PM 35.2500 -89.4667 270° West 76 87 3,100 154 Climbing KMEM
Fri 04:09:39 PM 35.2667 -89.5000 301° West 106 122 3,100 50 Level KMEM
Fri 04:10:39 PM 35.2667 -89.5333 270° West 99 114 3,200 150 Climbing KMEM
Fri 04:11:39 PM 35.2833 -89.5667 301° West 94 108 3,400 244 Climbing KMEM
Fri 04:12:42 PM 35.2833 -89.6000 270° West 92 106 3,700 333 Climbing KMEM
Fri 04:13:45 PM 35.3000 -89.6333 302° West 85 98 4,100 194 Climbing KMEM
Fri 04:14:46 PM 35.3000 -89.6667 270° West 103 119 4,100  Level KMEM
Fri 04:15:39 PM 35.3000 -89.7000 274° West 111 128 4,100  Level KMEM
Fri 04:16:00 PM 35.3023 -89.7100 274° West  Level FlightAware Approximate
Fri 04:16:41 PM 35.3000 -89.7333 270° West 102 117 4,100  Level KMEM
Fri 04:17:40 PM 35.3000 -89.7500 270° West 92 106 4,200 48 Climbing KMEM
Fri 04:18:47 PM 35.3000 -89.8000 270° West 95 109 4,200  Level KMEM
Fri 04:19:46 PM 35.3000 -89.8333 270° West 99 114 4,200 -50 Level KMEM
Fri 04:20:48 PM 35.3000 -89.8667 270° West 100 115 4,100 -52 Descending KMEM
Fri 04:21:42 PM 35.3167 -89.8833 321° Northwest 100 115 4,100  Level KMEM
Fri 04:22:39 PM 35.3167 -89.9167 270° West 94 108 4,100  Level KMEM
Fri 04:23:39 PM 35.3167 -89.9500 270° West 91 105 4,100  Level KMEM
Fri 04:24:40 PM 35.3167 -89.9833 270° West 97 112 4,100 48 Level KMEM
Fri 04:25:45 PM 35.3333 -90.0167 302° West 98 113 4,200  Climbing KMEM
Fri 04:26:39 PM 35.3333 -90.0500 270° West 103 119 4,100 -53 Descending KMEM
Fri 04:27:39 PM 35.3333 -90.0833 270° West 103 119 4,100  Level KMEM
Fri 04:28:42 PM 35.3500 -90.1167 302° West 100 115 4,100  Level KMEM
Fri 04:29:47 PM 35.3500 -90.1500 270° West 102 117 4,100 34 Level KMEM
Fri 04:31:40 PM 35.3500 -90.2167 270° West 101 116 4,200  Climbing KMEM
Fri 04:32:36 PM 35.3500 -90.2500 270° West 100 115 4,100  Descending KMEM
Fri 04:33:33 PM 35.3500 -90.2833 270° West 100 115 4,200  Climbing KMEM
Fri 04:34:33 PM 35.3500 -90.3167 270° West 98 113 4,100 -49 Descending KMEM
Fri 04:35:36 PM 35.3500 -90.3500 270° West 99 114 4,100  Level KMEM
Fri 04:36:41 PM 35.3667 -90.3833 302° West 96 110 4,100  Level KMEM
Fri 04:37:36 PM 35.3667 -90.4167 270° West 99 114 4,100  Level KMEM
Fri 04:38:14 PM 35.3744 -90.4461 288° West 100 115 4,100  Level Memphis Center
Fri 04:39:14 PM 35.3828 -90.4717 292° West 100 115 4,100  Level Memphis Center
Fri 04:40:14 PM 35.3828 -90.5047 270° West 100 115 4,100  Level Memphis Center
Fri 04:41:14 PM 35.3847 -90.5403 274° West 106 122 4,100 50 Level Memphis Center
Fri 04:42:14 PM 35.3911 -90.5683 286° West 106 122 4,200  Climbing Memphis Center
Fri 04:43:14 PM 35.3931 -90.6017 274° West 106 122 4,100 -50 Descending Memphis Center
Fri 04:44:14 PM 35.3931 -90.6372 270° West 106 122 4,100  Level Memphis Center
Fri 04:45:14 PM 35.3908 -90.6728 266° West 106 122 4,100  Level Memphis Center
Fri 04:46:14 PM 35.3908 -90.7086 270° West 98 113 4,100  Level Memphis Center
Fri 04:47:15 PM 35.3928 -90.7442 274° West 104 120 4,100 -50 Level Memphis Center
Fri 04:48:14 PM 35.3967 -90.7772 278° West 104 120 4,000  Descending Memphis Center
Fri 04:49:15 PM 35.4008 -90.8106 279° West 104 120 4,100 100 Climbing Memphis Center
Fri 04:50:14 PM 35.4092 -90.8411 289° West 98 113 4,200  Climbing Memphis Center
Fri 04:51:15 PM 35.4069 -90.8742 265° West 98 113 4,100 -50 Descending Memphis Center
Fri 04:52:15 PM 35.4108 -90.9072 278° West 103 119 4,100 50 Level Memphis Center
Fri 04:53:14 PM 35.4150 -90.9378 280° West 103 119 4,200  Climbing Memphis Center
Fri 04:54:15 PM 35.4211 -90.9736 282° West 103 119 4,100 -50 Descending Memphis Center
Fri 04:55:14 PM 35.4208 -91.0067 269° West 103 119 4,100  Level Memphis Center
Fri 04:56:14 PM 35.4247 -91.0372 279° West 103 119 4,100  Level Memphis Center
Fri 04:57:14 PM 35.4289 -91.0706 279° West 103 119 4,100  Level Memphis Center
Fri 04:58:14 PM 35.4328 -91.0961 281° West 103 119 4,100  Level Memphis Center
Fri 04:59:14 PM 35.4369 -91.1267 280° West 98 113 4,100  Level Memphis Center
Fri 05:00:15 PM 35.4428 -91.1572 283° West 98 113 4,100  Level Memphis Center
Fri 05:01:15 PM 35.4447 -91.1903 274° West 98 113 4,100  Level Memphis Center
Fri 05:02:14 PM 35.4508 -91.2261 282° West 119 137 4,100  Level Memphis Center
Fri 05:03:15 PM 35.4589 -91.2669 284° West 119 137 4,100 -50 Level Memphis Center
Fri 05:04:14 PM 35.4689 -91.3053 288° West 119 137 4,000 -50 Descending Memphis Center
Fri 05:05:14 PM 35.4792 -91.3436 288° West 119 137 4,000  Level Memphis Center
Fri 05:06:15 PM 35.4892 -91.3822 288° West 119 137 4,000  Level Memphis Center
Fri 05:07:15 PM 35.4953 -91.4103 285° West 119 137 4,000  Level Memphis Center
Fri 05:08:14 PM 35.4597 -91.4250 199° South 119 137 4,000  Level Memphis Center
Fri 05:09:15 PM 35.4617 -91.4303 294° West 119 137 4,000  Level Memphis Center
Fri 05:10:15 PM 35.4656 -91.4686 277° West 119 137 4,000  Level Memphis Center

Login

Don't have an account? Register now (free) for customized features, flight alerts, and more!